sensor_id;sensor_type;location;lat;lon;timestamp;P1;durP1;ratioP1;P2;durP2;ratioP2
71253;SDS011;59019;47.638;18.966;2023-05-10T00:01:47;4.90;;;2.08;;
71253;SDS011;59019;47.638;18.966;2023-05-10T00:04:13;4.38;;;2.08;;
71253;SDS011;59019;47.638;18.966;2023-05-10T00:06:38;4.90;;;2.30;;
71253;SDS011;59019;47.638;18.966;2023-05-10T00:09:04;7.80;;;3.08;;
71253;SDS011;59019;47.638;18.966;2023-05-10T00:11:30;6.27;;;2.57;;
71253;SDS011;59019;47.638;18.966;2023-05-10T00:13:55;6.27;;;2.20;;
71253;SDS011;59019;47.638;18.966;2023-05-10T00:16:21;6.88;;;2.30;;
71253;SDS011;59019;47.638;18.966;2023-05-10T00:18:46;4.57;;;2.17;;
71253;SDS011;59019;47.638;18.966;2023-05-10T00:21:12;4.43;;;1.97;;
71253;SDS011;59019;47.638;18.966;2023-05-10T00:23:37;6.13;;;2.40;;
71253;SDS011;59019;47.638;18.966;2023-05-10T00:26:03;5.33;;;2.53;;
71253;SDS011;59019;47.638;18.966;2023-05-10T00:28:29;5.57;;;2.20;;
71253;SDS011;59019;47.638;18.966;2023-05-10T00:30:54;6.45;;;2.80;;
71253;SDS011;59019;47.638;18.966;2023-05-10T00:33:20;6.50;;;2.23;;
71253;SDS011;59019;47.638;18.966;2023-05-10T00:35:46;4.82;;;2.50;;
71253;SDS011;59019;47.638;18.966;2023-05-10T00:38:11;5.97;;;2.20;;
71253;SDS011;59019;47.638;18.966;2023-05-10T00:40:37;6.03;;;2.42;;
71253;SDS011;59019;47.638;18.966;2023-05-10T00:43:03;5.17;;;2.17;;
71253;SDS011;59019;47.638;18.966;2023-05-10T00:45:33;5.82;;;2.65;;
71253;SDS011;59019;47.638;18.966;2023-05-10T00:48:02;5.28;;;2.42;;
71253;SDS011;59019;47.638;18.966;2023-05-10T00:50:30;6.22;;;2.30;;
71253;SDS011;59019;47.638;18.966;2023-05-10T00:52:57;7.28;;;2.50;;
71253;SDS011;59019;47.638;18.966;2023-05-10T00:55:24;5.67;;;2.03;;
71253;SDS011;59019;47.638;18.966;2023-05-10T00:57:50;5.60;;;2.40;;
71253;SDS011;59019;47.638;18.966;2023-05-10T01:00:17;5.22;;;2.30;;
71253;SDS011;59019;47.638;18.966;2023-05-10T01:02:43;5.45;;;2.30;;
71253;SDS011;59019;47.638;18.966;2023-05-10T01:05:11;5.33;;;2.17;;
71253;SDS011;59019;47.638;18.966;2023-05-10T01:07:38;5.68;;;1.90;;
71253;SDS011;59019;47.638;18.966;2023-05-10T01:10:04;7.00;;;2.03;;
71253;SDS011;59019;47.638;18.966;2023-05-10T01:12:31;5.45;;;2.13;;
71253;SDS011;59019;47.638;18.966;2023-05-10T01:14:57;5.35;;;1.80;;
71253;SDS011;59019;47.638;18.966;2023-05-10T01:17:23;4.90;;;2.07;;
71253;SDS011;59019;47.638;18.966;2023-05-10T01:19:49;5.97;;;2.22;;
71253;SDS011;59019;47.638;18.966;2023-05-10T01:27:53;5.93;;;2.50;;
71253;SDS011;59019;47.638;18.966;2023-05-10T01:33:55;6.05;;;2.20;;
71253;SDS011;59019;47.638;18.966;2023-05-10T01:36:30;5.68;;;2.30;;
71253;SDS011;59019;47.638;18.966;2023-05-10T01:39:02;5.30;;;2.20;;
71253;SDS011;59019;47.638;18.966;2023-05-10T01:44:09;4.93;;;2.10;;
71253;SDS011;59019;47.638;18.966;2023-05-10T01:46:58;5.93;;;2.28;;
71253;SDS011;59019;47.638;18.966;2023-05-10T01:49:32;6.28;;;2.35;;
71253;SDS011;59019;47.638;18.966;2023-05-10T01:52:09;5.13;;;2.30;;
71253;SDS011;59019;47.638;18.966;2023-05-10T01:54:41;5.63;;;2.28;;
71253;SDS011;59019;47.638;18.966;2023-05-10T01:57:09;5.90;;;2.33;;
71253;SDS011;59019;47.638;18.966;2023-05-10T01:59:39;5.65;;;2.33;;
71253;SDS011;59019;47.638;18.966;2023-05-10T02:02:08;5.75;;;2.28;;
71253;SDS011;59019;47.638;18.966;2023-05-10T02:04:38;5.60;;;2.50;;
71253;SDS011;59019;47.638;18.966;2023-05-10T02:07:05;7.07;;;2.30;;
71253;SDS011;59019;47.638;18.966;2023-05-10T02:09:32;5.40;;;2.10;;
71253;SDS011;59019;47.638;18.966;2023-05-10T02:11:59;4.95;;;1.98;;
71253;SDS011;59019;47.638;18.966;2023-05-10T02:14:27;7.32;;;2.33;;
71253;SDS011;59019;47.638;18.966;2023-05-10T02:16:55;5.73;;;2.30;;
71253;SDS011;59019;47.638;18.966;2023-05-10T02:19:23;4.50;;;2.17;;
71253;SDS011;59019;47.638;18.966;2023-05-10T02:21:50;5.05;;;2.15;;
71253;SDS011;59019;47.638;18.966;2023-05-10T02:24:16;7.70;;;2.40;;
71253;SDS011;59019;47.638;18.966;2023-05-10T02:26:44;4.70;;;1.90;;
71253;SDS011;59019;47.638;18.966;2023-05-10T02:29:11;5.57;;;2.23;;
71253;SDS011;59019;47.638;18.966;2023-05-10T02:31:39;6.10;;;2.40;;
71253;SDS011;59019;47.638;18.966;2023-05-10T02:34:05;6.35;;;2.40;;
71253;SDS011;59019;47.638;18.966;2023-05-10T02:36:33;4.82;;;2.17;;
71253;SDS011;59019;47.638;18.966;2023-05-10T02:39:00;5.28;;;2.10;;
71253;SDS011;59019;47.638;18.966;2023-05-10T02:41:26;5.87;;;2.23;;
71253;SDS011;59019;47.638;18.966;2023-05-10T02:43:55;5.57;;;2.08;;
71253;SDS011;59019;47.638;18.966;2023-05-10T02:46:24;4.80;;;2.10;;
71253;SDS011;59019;47.638;18.966;2023-05-10T02:48:50;5.17;;;2.40;;
71253;SDS011;59019;47.638;18.966;2023-05-10T02:51:16;4.70;;;2.10;;
71253;SDS011;59019;47.638;18.966;2023-05-10T02:53:44;6.43;;;2.80;;
71253;SDS011;59019;47.638;18.966;2023-05-10T02:56:13;4.82;;;2.35;;
71253;SDS011;59019;47.638;18.966;2023-05-10T02:58:45;5.50;;;2.40;;
71253;SDS011;59019;47.638;18.966;2023-05-10T03:01:11;5.45;;;2.30;;
71253;SDS011;59019;47.638;18.966;2023-05-10T03:03:37;4.75;;;2.25;;
71253;SDS011;59019;47.638;18.966;2023-05-10T03:06:02;5.20;;;2.30;;
71253;SDS011;59019;47.638;18.966;2023-05-10T03:08:28;5.03;;;2.33;;
71253;SDS011;59019;47.638;18.966;2023-05-10T03:11:01;5.93;;;2.55;;
71253;SDS011;59019;47.638;18.966;2023-05-10T03:13:56;5.97;;;2.63;;
71253;SDS011;59019;47.638;18.966;2023-05-10T03:16:24;5.72;;;2.08;;
71253;SDS011;59019;47.638;18.966;2023-05-10T03:19:16;5.90;;;2.40;;
71253;SDS011;59019;47.638;18.966;2023-05-10T03:21:52;5.18;;;2.35;;
71253;SDS011;59019;47.638;18.966;2023-05-10T03:24:20;6.40;;;2.42;;
71253;SDS011;59019;47.638;18.966;2023-05-10T03:26:48;5.05;;;2.33;;
71253;SDS011;59019;47.638;18.966;2023-05-10T03:29:16;5.32;;;2.40;;
71253;SDS011;59019;47.638;18.966;2023-05-10T03:31:42;5.53;;;2.23;;
71253;SDS011;59019;47.638;18.966;2023-05-10T03:34:08;5.65;;;1.98;;
71253;SDS011;59019;47.638;18.966;2023-05-10T03:36:33;6.30;;;2.30;;
71253;SDS011;59019;47.638;18.966;2023-05-10T03:38:59;5.75;;;2.47;;
71253;SDS011;59019;47.638;18.966;2023-05-10T03:41:24;4.80;;;2.13;;
71253;SDS011;59019;47.638;18.966;2023-05-10T03:43:50;7.20;;;2.13;;
71253;SDS011;59019;47.638;18.966;2023-05-10T03:46:16;5.55;;;2.00;;
71253;SDS011;59019;47.638;18.966;2023-05-10T03:48:42;6.07;;;2.50;;
71253;SDS011;59019;47.638;18.966;2023-05-10T03:51:08;7.57;;;2.40;;
71253;SDS011;59019;47.638;18.966;2023-05-10T03:53:33;5.30;;;2.30;;
71253;SDS011;59019;47.638;18.966;2023-05-10T03:55:59;6.05;;;3.15;;
71253;SDS011;59019;47.638;18.966;2023-05-10T03:58:24;7.20;;;2.70;;
71253;SDS011;59019;47.638;18.966;2023-05-10T04:00:50;5.57;;;2.87;;
71253;SDS011;59019;47.638;18.966;2023-05-10T04:03:16;4.95;;;2.30;;
71253;SDS011;59019;47.638;18.966;2023-05-10T04:05:42;5.40;;;2.30;;
71253;SDS011;59019;47.638;18.966;2023-05-10T04:08:08;5.23;;;2.30;;
71253;SDS011;59019;47.638;18.966;2023-05-10T04:10:34;4.78;;;2.40;;
71253;SDS011;59019;47.638;18.966;2023-05-10T04:12:59;5.20;;;2.35;;
71253;SDS011;59019;47.638;18.966;2023-05-10T04:15:25;5.20;;;2.50;;
71253;SDS011;59019;47.638;18.966;2023-05-10T04:17:51;5.37;;;2.37;;
71253;SDS011;59019;47.638;18.966;2023-05-10T04:20:16;5.07;;;2.35;;
71253;SDS011;59019;47.638;18.966;2023-05-10T04:22:42;6.13;;;2.77;;
71253;SDS011;59019;47.638;18.966;2023-05-10T04:25:08;5.82;;;2.80;;
71253;SDS011;59019;47.638;18.966;2023-05-10T04:27:34;5.43;;;2.78;;
71253;SDS011;59019;47.638;18.966;2023-05-10T04:29:59;6.15;;;2.85;;
71253;SDS011;59019;47.638;18.966;2023-05-10T04:32:25;5.80;;;2.97;;
71253;SDS011;59019;47.638;18.966;2023-05-10T04:34:51;8.87;;;3.40;;
71253;SDS011;59019;47.638;18.966;2023-05-10T04:37:16;7.70;;;3.97;;
71253;SDS011;59019;47.638;18.966;2023-05-10T04:39:42;8.63;;;3.13;;
71253;SDS011;59019;47.638;18.966;2023-05-10T04:42:08;6.07;;;3.00;;
71253;SDS011;59019;47.638;18.966;2023-05-10T04:44:33;8.37;;;3.30;;
71253;SDS011;59019;47.638;18.966;2023-05-10T04:46:59;6.68;;;3.20;;
71253;SDS011;59019;47.638;18.966;2023-05-10T04:49:25;9.83;;;3.37;;
71253;SDS011;59019;47.638;18.966;2023-05-10T04:51:50;6.03;;;2.93;;
71253;SDS011;59019;47.638;18.966;2023-05-10T04:54:16;6.78;;;2.70;;
71253;SDS011;59019;47.638;18.966;2023-05-10T04:56:41;7.50;;;3.40;;
71253;SDS011;59019;47.638;18.966;2023-05-10T04:59:07;6.23;;;2.80;;
71253;SDS011;59019;47.638;18.966;2023-05-10T05:01:32;6.50;;;3.05;;
71253;SDS011;59019;47.638;18.966;2023-05-10T05:03:58;7.93;;;2.97;;
71253;SDS011;59019;47.638;18.966;2023-05-10T05:06:24;5.50;;;2.85;;
71253;SDS011;59019;47.638;18.966;2023-05-10T05:08:50;5.07;;;2.60;;
71253;SDS011;59019;47.638;18.966;2023-05-10T05:11:16;5.68;;;2.75;;
71253;SDS011;59019;47.638;18.966;2023-05-10T05:13:42;6.95;;;2.97;;
71253;SDS011;59019;47.638;18.966;2023-05-10T05:16:08;5.77;;;2.80;;
71253;SDS011;59019;47.638;18.966;2023-05-10T05:18:34;5.82;;;2.83;;
71253;SDS011;59019;47.638;18.966;2023-05-10T05:20:59;4.97;;;2.50;;
71253;SDS011;59019;47.638;18.966;2023-05-10T05:23:25;7.90;;;2.90;;
71253;SDS011;59019;47.638;18.966;2023-05-10T05:25:51;6.30;;;2.90;;
71253;SDS011;59019;47.638;18.966;2023-05-10T05:28:17;5.93;;;2.88;;
71253;SDS011;59019;47.638;18.966;2023-05-10T05:30:43;7.05;;;3.25;;
71253;SDS011;59019;47.638;18.966;2023-05-10T05:33:09;8.30;;;2.57;;
71253;SDS011;59019;47.638;18.966;2023-05-10T05:35:34;6.33;;;2.90;;
71253;SDS011;59019;47.638;18.966;2023-05-10T05:38:00;6.00;;;3.17;;
71253;SDS011;59019;47.638;18.966;2023-05-10T05:40:26;6.03;;;3.07;;
71253;SDS011;59019;47.638;18.966;2023-05-10T05:42:51;7.10;;;2.83;;
71253;SDS011;59019;47.638;18.966;2023-05-10T05:45:17;5.13;;;2.72;;
71253;SDS011;59019;47.638;18.966;2023-05-10T05:47:43;5.80;;;2.60;;
71253;SDS011;59019;47.638;18.966;2023-05-10T05:50:09;7.03;;;3.30;;
71253;SDS011;59019;47.638;18.966;2023-05-10T05:52:35;6.17;;;3.00;;
71253;SDS011;59019;47.638;18.966;2023-05-10T05:55:01;5.68;;;2.85;;
71253;SDS011;59019;47.638;18.966;2023-05-10T05:57:26;7.30;;;3.33;;
71253;SDS011;59019;47.638;18.966;2023-05-10T05:59:52;5.53;;;3.28;;
71253;SDS011;59019;47.638;18.966;2023-05-10T06:02:17;6.90;;;3.50;;
71253;SDS011;59019;47.638;18.966;2023-05-10T06:04:43;6.40;;;3.08;;
71253;SDS011;59019;47.638;18.966;2023-05-10T06:07:09;6.77;;;3.30;;
71253;SDS011;59019;47.638;18.966;2023-05-10T06:09:34;5.82;;;3.17;;
71253;SDS011;59019;47.638;18.966;2023-05-10T06:12:00;6.60;;;3.30;;
71253;SDS011;59019;47.638;18.966;2023-05-10T06:14:26;6.72;;;3.38;;
71253;SDS011;59019;47.638;18.966;2023-05-10T06:16:52;5.93;;;3.27;;
71253;SDS011;59019;47.638;18.966;2023-05-10T06:19:17;7.82;;;3.55;;
71253;SDS011;59019;47.638;18.966;2023-05-10T06:21:43;6.60;;;3.45;;
71253;SDS011;59019;47.638;18.966;2023-05-10T06:24:08;6.50;;;3.37;;
71253;SDS011;59019;47.638;18.966;2023-05-10T06:26:34;5.93;;;3.43;;
71253;SDS011;59019;47.638;18.966;2023-05-10T06:28:59;7.28;;;3.00;;
71253;SDS011;59019;47.638;18.966;2023-05-10T06:31:26;7.85;;;3.45;;
71253;SDS011;59019;47.638;18.966;2023-05-10T06:33:51;6.70;;;3.40;;
71253;SDS011;59019;47.638;18.966;2023-05-10T06:36:17;8.73;;;3.40;;
71253;SDS011;59019;47.638;18.966;2023-05-10T06:38:42;6.63;;;3.33;;
71253;SDS011;59019;47.638;18.966;2023-05-10T06:41:08;5.97;;;3.30;;
71253;SDS011;59019;47.638;18.966;2023-05-10T06:43:33;6.83;;;3.03;;
71253;SDS011;59019;47.638;18.966;2023-05-10T06:45:59;6.55;;;3.60;;
71253;SDS011;59019;47.638;18.966;2023-05-10T06:48:25;7.33;;;3.63;;
71253;SDS011;59019;47.638;18.966;2023-05-10T06:50:50;7.13;;;3.40;;
71253;SDS011;59019;47.638;18.966;2023-05-10T06:53:16;5.53;;;3.27;;
71253;SDS011;59019;47.638;18.966;2023-05-10T06:55:41;6.35;;;3.30;;
71253;SDS011;59019;47.638;18.966;2023-05-10T06:58:08;9.03;;;3.43;;
71253;SDS011;59019;47.638;18.966;2023-05-10T07:00:33;6.63;;;3.20;;
71253;SDS011;59019;47.638;18.966;2023-05-10T07:02:59;7.50;;;3.43;;
71253;SDS011;59019;47.638;18.966;2023-05-10T07:05:24;6.47;;;3.30;;
71253;SDS011;59019;47.638;18.966;2023-05-10T07:07:52;6.88;;;3.58;;
71253;SDS011;59019;47.638;18.966;2023-05-10T07:10:18;5.70;;;3.20;;
71253;SDS011;59019;47.638;18.966;2023-05-10T07:12:44;6.50;;;3.17;;
71253;SDS011;59019;47.638;18.966;2023-05-10T07:15:09;7.47;;;3.40;;
71253;SDS011;59019;47.638;18.966;2023-05-10T07:17:35;5.90;;;3.20;;
71253;SDS011;59019;47.638;18.966;2023-05-10T07:20:01;6.00;;;3.20;;
71253;SDS011;59019;47.638;18.966;2023-05-10T07:22:26;6.18;;;3.70;;
71253;SDS011;59019;47.638;18.966;2023-05-10T07:24:52;5.40;;;3.60;;
71253;SDS011;59019;47.638;18.966;2023-05-10T07:27:17;6.57;;;3.33;;
71253;SDS011;59019;47.638;18.966;2023-05-10T07:29:43;5.65;;;3.30;;
71253;SDS011;59019;47.638;18.966;2023-05-10T07:32:08;5.90;;;3.30;;
71253;SDS011;59019;47.638;18.966;2023-05-10T07:34:34;5.47;;;3.30;;
71253;SDS011;59019;47.638;18.966;2023-05-10T07:36:59;7.32;;;3.47;;
71253;SDS011;59019;47.638;18.966;2023-05-10T07:39:26;5.60;;;3.20;;
71253;SDS011;59019;47.638;18.966;2023-05-10T07:41:52;7.45;;;3.25;;
71253;SDS011;59019;47.638;18.966;2023-05-10T07:44:18;5.40;;;3.03;;
71253;SDS011;59019;47.638;18.966;2023-05-10T07:46:45;6.60;;;3.73;;
71253;SDS011;59019;47.638;18.966;2023-05-10T07:49:11;4.80;;;3.10;;
71253;SDS011;59019;47.638;18.966;2023-05-10T07:51:36;6.32;;;3.28;;
71253;SDS011;59019;47.638;18.966;2023-05-10T07:54:02;5.53;;;3.28;;
71253;SDS011;59019;47.638;18.966;2023-05-10T07:56:28;6.13;;;3.00;;
71253;SDS011;59019;47.638;18.966;2023-05-10T07:58:56;10.88;;;3.78;;
71253;SDS011;59019;47.638;18.966;2023-05-10T08:01:23;6.78;;;3.35;;
71253;SDS011;59019;47.638;18.966;2023-05-10T08:03:48;7.13;;;3.35;;
71253;SDS011;59019;47.638;18.966;2023-05-10T08:06:16;5.37;;;3.20;;
71253;SDS011;59019;47.638;18.966;2023-05-10T08:08:42;10.45;;;3.65;;
71253;SDS011;59019;47.638;18.966;2023-05-10T08:11:08;7.05;;;3.50;;
71253;SDS011;59019;47.638;18.966;2023-05-10T08:13:33;6.03;;;3.23;;
71253;SDS011;59019;47.638;18.966;2023-05-10T08:15:59;5.35;;;3.00;;
71253;SDS011;59019;47.638;18.966;2023-05-10T08:18:25;4.53;;;2.58;;
71253;SDS011;59019;47.638;18.966;2023-05-10T08:20:51;6.47;;;3.20;;
71253;SDS011;59019;47.638;18.966;2023-05-10T08:23:16;5.97;;;3.25;;
71253;SDS011;59019;47.638;18.966;2023-05-10T08:25:42;6.37;;;3.07;;
71253;SDS011;59019;47.638;18.966;2023-05-10T08:28:07;8.27;;;3.43;;
71253;SDS011;59019;47.638;18.966;2023-05-10T08:30:33;31.92;;;8.73;;
71253;SDS011;59019;47.638;18.966;2023-05-10T08:32:58;13.25;;;5.32;;
71253;SDS011;59019;47.638;18.966;2023-05-10T08:35:24;11.17;;;5.17;;
71253;SDS011;59019;47.638;18.966;2023-05-10T08:37:50;5.85;;;3.03;;
71253;SDS011;59019;47.638;18.966;2023-05-10T08:40:16;6.50;;;3.50;;
71253;SDS011;59019;47.638;18.966;2023-05-10T08:42:46;5.40;;;3.05;;
71253;SDS011;59019;47.638;18.966;2023-05-10T08:45:26;5.50;;;3.50;;
71253;SDS011;59019;47.638;18.966;2023-05-10T08:47:56;5.65;;;3.38;;
71253;SDS011;59019;47.638;18.966;2023-05-10T08:50:22;7.07;;;4.25;;
71253;SDS011;59019;47.638;18.966;2023-05-10T08:52:47;5.77;;;2.87;;
71253;SDS011;59019;47.638;18.966;2023-05-10T08:55:16;5.40;;;3.13;;
71253;SDS011;59019;47.638;18.966;2023-05-10T08:57:43;5.75;;;2.78;;
71253;SDS011;59019;47.638;18.966;2023-05-10T09:00:08;5.47;;;3.00;;
71253;SDS011;59019;47.638;18.966;2023-05-10T09:02:35;6.53;;;2.83;;
71253;SDS011;59019;47.638;18.966;2023-05-10T09:05:02;5.15;;;3.05;;
71253;SDS011;59019;47.638;18.966;2023-05-10T09:07:29;5.90;;;2.88;;
71253;SDS011;59019;47.638;18.966;2023-05-10T09:09:55;5.90;;;3.20;;
71253;SDS011;59019;47.638;18.966;2023-05-10T09:12:22;5.43;;;2.88;;
71253;SDS011;59019;47.638;18.966;2023-05-10T09:14:48;5.30;;;2.75;;
71253;SDS011;59019;47.638;18.966;2023-05-10T09:17:15;4.97;;;2.42;;
71253;SDS011;59019;47.638;18.966;2023-05-10T09:19:41;5.13;;;3.20;;
71253;SDS011;59019;47.638;18.966;2023-05-10T09:22:07;5.25;;;3.20;;
71253;SDS011;59019;47.638;18.966;2023-05-10T09:24:34;5.97;;;2.92;;
71253;SDS011;59019;47.638;18.966;2023-05-10T09:27:00;5.20;;;2.73;;
71253;SDS011;59019;47.638;18.966;2023-05-10T09:29:30;4.57;;;2.60;;
71253;SDS011;59019;47.638;18.966;2023-05-10T09:32:05;4.20;;;2.13;;
71253;SDS011;59019;47.638;18.966;2023-05-10T09:34:31;4.43;;;2.50;;
71253;SDS011;59019;47.638;18.966;2023-05-10T09:36:58;5.95;;;2.70;;
71253;SDS011;59019;47.638;18.966;2023-05-10T09:39:35;4.32;;;2.35;;
71253;SDS011;59019;47.638;18.966;2023-05-10T09:42:03;5.22;;;2.90;;
71253;SDS011;59019;47.638;18.966;2023-05-10T09:44:30;4.73;;;2.60;;
71253;SDS011;59019;47.638;18.966;2023-05-10T09:46:57;4.95;;;2.90;;
71253;SDS011;59019;47.638;18.966;2023-05-10T09:49:23;4.53;;;2.25;;
71253;SDS011;59019;47.638;18.966;2023-05-10T09:52:05;4.73;;;2.40;;
71253;SDS011;59019;47.638;18.966;2023-05-10T09:54:32;8.02;;;3.22;;
71253;SDS011;59019;47.638;18.966;2023-05-10T09:56:59;5.05;;;2.35;;
71253;SDS011;59019;47.638;18.966;2023-05-10T09:59:25;4.40;;;2.50;;
71253;SDS011;59019;47.638;18.966;2023-05-10T10:02:01;5.15;;;2.60;;
71253;SDS011;59019;47.638;18.966;2023-05-10T10:04:27;6.77;;;2.70;;
71253;SDS011;59019;47.638;18.966;2023-05-10T10:07:00;6.70;;;2.70;;
71253;SDS011;59019;47.638;18.966;2023-05-10T10:09:29;4.93;;;2.60;;
71253;SDS011;59019;47.638;18.966;2023-05-10T10:11:55;5.15;;;2.30;;
71253;SDS011;59019;47.638;18.966;2023-05-10T10:14:22;3.95;;;2.08;;
71253;SDS011;59019;47.638;18.966;2023-05-10T10:16:52;4.00;;;2.07;;
71253;SDS011;59019;47.638;18.966;2023-05-10T10:19:20;5.55;;;2.40;;
71253;SDS011;59019;47.638;18.966;2023-05-10T10:21:47;3.85;;;2.20;;
71253;SDS011;59019;47.638;18.966;2023-05-10T10:24:14;4.90;;;2.30;;
71253;SDS011;59019;47.638;18.966;2023-05-10T10:26:40;4.70;;;2.30;;
71253;SDS011;59019;47.638;18.966;2023-05-10T10:29:24;4.55;;;2.35;;
71253;SDS011;59019;47.638;18.966;2023-05-10T10:34:45;3.67;;;2.00;;
71253;SDS011;59019;47.638;18.966;2023-05-10T10:37:13;4.57;;;2.30;;
71253;SDS011;59019;47.638;18.966;2023-05-10T10:39:39;6.63;;;2.45;;
71253;SDS011;59019;47.638;18.966;2023-05-10T10:42:04;5.38;;;2.30;;
71253;SDS011;59019;47.638;18.966;2023-05-10T10:49:37;4.80;;;2.50;;
71253;SDS011;59019;47.638;18.966;2023-05-10T10:54:40;5.25;;;2.10;;
71253;SDS011;59019;47.638;18.966;2023-05-10T10:57:13;4.00;;;2.20;;
71253;SDS011;59019;47.638;18.966;2023-05-10T10:59:42;5.70;;;1.97;;
71253;SDS011;59019;47.638;18.966;2023-05-10T11:02:32;8.45;;;2.20;;
71253;SDS011;59019;47.638;18.966;2023-05-10T11:07:58;4.43;;;2.05;;
71253;SDS011;59019;47.638;18.966;2023-05-10T11:10:25;5.13;;;2.10;;
71253;SDS011;59019;47.638;18.966;2023-05-10T11:15:36;4.18;;;2.17;;
71253;SDS011;59019;47.638;18.966;2023-05-10T11:18:18;4.75;;;2.10;;
71253;SDS011;59019;47.638;18.966;2023-05-10T11:23:29;4.38;;;1.92;;
71253;SDS011;59019;47.638;18.966;2023-05-10T11:26:12;4.13;;;1.83;;
71253;SDS011;59019;47.638;18.966;2023-05-10T11:28:45;4.15;;;2.00;;
71253;SDS011;59019;47.638;18.966;2023-05-10T11:31:16;3.33;;;1.75;;
71253;SDS011;59019;47.638;18.966;2023-05-10T11:33:46;5.20;;;1.90;;
71253;SDS011;59019;47.638;18.966;2023-05-10T11:36:19;3.95;;;2.00;;
71253;SDS011;59019;47.638;18.966;2023-05-10T11:38:47;4.63;;;2.37;;
71253;SDS011;59019;47.638;18.966;2023-05-10T11:41:13;5.38;;;2.33;;
71253;SDS011;59019;47.638;18.966;2023-05-10T11:43:40;4.82;;;2.30;;
71253;SDS011;59019;47.638;18.966;2023-05-10T11:46:09;4.60;;;1.90;;
71253;SDS011;59019;47.638;18.966;2023-05-10T11:48:36;5.57;;;2.00;;
71253;SDS011;59019;47.638;18.966;2023-05-10T11:51:06;4.23;;;1.87;;
71253;SDS011;59019;47.638;18.966;2023-05-10T11:53:32;4.05;;;1.80;;
71253;SDS011;59019;47.638;18.966;2023-05-10T11:56:07;3.38;;;1.60;;
71253;SDS011;59019;47.638;18.966;2023-05-10T11:58:35;4.32;;;1.70;;
71253;SDS011;59019;47.638;18.966;2023-05-10T12:01:02;4.68;;;1.77;;
71253;SDS011;59019;47.638;18.966;2023-05-10T12:03:28;4.73;;;1.97;;
71253;SDS011;59019;47.638;18.966;2023-05-10T12:05:55;5.35;;;2.00;;
71253;SDS011;59019;47.638;18.966;2023-05-10T12:08:22;3.92;;;1.90;;
71253;SDS011;59019;47.638;18.966;2023-05-10T12:10:49;4.28;;;1.90;;
71253;SDS011;59019;47.638;18.966;2023-05-10T12:13:14;6.93;;;2.20;;
71253;SDS011;59019;47.638;18.966;2023-05-10T12:15:41;3.90;;;1.92;;
71253;SDS011;59019;47.638;18.966;2023-05-10T12:18:08;5.72;;;1.77;;
71253;SDS011;59019;47.638;18.966;2023-05-10T12:20:35;3.50;;;1.80;;
71253;SDS011;59019;47.638;18.966;2023-05-10T12:23:01;5.47;;;1.92;;
71253;SDS011;59019;47.638;18.966;2023-05-10T12:25:32;3.60;;;1.70;;
71253;SDS011;59019;47.638;18.966;2023-05-10T12:27:59;3.67;;;1.90;;
71253;SDS011;59019;47.638;18.966;2023-05-10T12:30:28;5.88;;;1.67;;
71253;SDS011;59019;47.638;18.966;2023-05-10T12:35:47;4.60;;;1.90;;
71253;SDS011;59019;47.638;18.966;2023-05-10T12:40:59;3.85;;;1.60;;
71253;SDS011;59019;47.638;18.966;2023-05-10T12:43:25;3.75;;;1.75;;
71253;SDS011;59019;47.638;18.966;2023-05-10T12:45:51;3.90;;;1.83;;
71253;SDS011;59019;47.638;18.966;2023-05-10T12:48:16;4.03;;;1.70;;
71253;SDS011;59019;47.638;18.966;2023-05-10T12:50:43;3.67;;;1.67;;
71253;SDS011;59019;47.638;18.966;2023-05-10T12:53:09;4.73;;;1.70;;
71253;SDS011;59019;47.638;18.966;2023-05-10T12:55:34;3.83;;;1.52;;
71253;SDS011;59019;47.638;18.966;2023-05-10T12:58:00;3.87;;;1.70;;
71253;SDS011;59019;47.638;18.966;2023-05-10T13:00:25;4.63;;;1.83;;
71253;SDS011;59019;47.638;18.966;2023-05-10T13:02:51;3.50;;;1.60;;
71253;SDS011;59019;47.638;18.966;2023-05-10T13:05:17;3.45;;;1.67;;
71253;SDS011;59019;47.638;18.966;2023-05-10T13:07:42;3.67;;;1.90;;
71253;SDS011;59019;47.638;18.966;2023-05-10T13:10:10;4.43;;;1.88;;
71253;SDS011;59019;47.638;18.966;2023-05-10T13:12:36;3.53;;;1.50;;
71253;SDS011;59019;47.638;18.966;2023-05-10T13:15:02;9.32;;;2.05;;
71253;SDS011;59019;47.638;18.966;2023-05-10T13:17:28;3.97;;;1.60;;
71253;SDS011;59019;47.638;18.966;2023-05-10T13:19:53;4.15;;;1.60;;
71253;SDS011;59019;47.638;18.966;2023-05-10T13:22:19;4.68;;;1.80;;
71253;SDS011;59019;47.638;18.966;2023-05-10T13:24:45;3.90;;;1.50;;
71253;SDS011;59019;47.638;18.966;2023-05-10T13:27:11;4.07;;;1.60;;
71253;SDS011;59019;47.638;18.966;2023-05-10T13:29:36;4.15;;;1.75;;
71253;SDS011;59019;47.638;18.966;2023-05-10T13:32:02;4.13;;;1.60;;
71253;SDS011;59019;47.638;18.966;2023-05-10T13:34:27;6.53;;;1.80;;
71253;SDS011;59019;47.638;18.966;2023-05-10T13:36:53;3.67;;;1.80;;
71253;SDS011;59019;47.638;18.966;2023-05-10T13:39:19;5.03;;;1.73;;
71253;SDS011;59019;47.638;18.966;2023-05-10T13:41:45;4.03;;;1.83;;
71253;SDS011;59019;47.638;18.966;2023-05-10T13:44:14;3.50;;;1.52;;
71253;SDS011;59019;47.638;18.966;2023-05-10T13:46:40;5.28;;;1.60;;
71253;SDS011;59019;47.638;18.966;2023-05-10T13:49:08;3.55;;;1.55;;
71253;SDS011;59019;47.638;18.966;2023-05-10T13:51:34;4.47;;;1.35;;
71253;SDS011;59019;47.638;18.966;2023-05-10T13:54:00;4.47;;;1.38;;
71253;SDS011;59019;47.638;18.966;2023-05-10T13:56:29;3.93;;;1.40;;
71253;SDS011;59019;47.638;18.966;2023-05-10T13:58:56;4.35;;;1.48;;
71253;SDS011;59019;47.638;18.966;2023-05-10T14:01:23;3.25;;;1.40;;
71253;SDS011;59019;47.638;18.966;2023-05-10T14:03:48;3.47;;;1.40;;
71253;SDS011;59019;47.638;18.966;2023-05-10T14:06:14;3.97;;;1.40;;
71253;SDS011;59019;47.638;18.966;2023-05-10T14:08:39;3.10;;;1.38;;
71253;SDS011;59019;47.638;18.966;2023-05-10T14:11:05;3.30;;;1.53;;
71253;SDS011;59019;47.638;18.966;2023-05-10T14:13:30;3.87;;;1.37;;
71253;SDS011;59019;47.638;18.966;2023-05-10T14:15:56;3.10;;;1.40;;
71253;SDS011;59019;47.638;18.966;2023-05-10T14:18:22;3.57;;;1.60;;
71253;SDS011;59019;47.638;18.966;2023-05-10T14:20:47;3.17;;;1.27;;
71253;SDS011;59019;47.638;18.966;2023-05-10T14:23:13;3.83;;;1.35;;
71253;SDS011;59019;47.638;18.966;2023-05-10T14:25:40;4.80;;;1.50;;
71253;SDS011;59019;47.638;18.966;2023-05-10T14:28:05;3.97;;;1.27;;
71253;SDS011;59019;47.638;18.966;2023-05-10T14:30:31;3.20;;;1.38;;
71253;SDS011;59019;47.638;18.966;2023-05-10T14:32:59;4.07;;;1.50;;
71253;SDS011;59019;47.638;18.966;2023-05-10T14:35:26;3.43;;;1.30;;
71253;SDS011;59019;47.638;18.966;2023-05-10T14:37:52;4.10;;;1.60;;
71253;SDS011;59019;47.638;18.966;2023-05-10T14:40:18;3.45;;;1.20;;
71253;SDS011;59019;47.638;18.966;2023-05-10T14:42:43;5.20;;;1.50;;
71253;SDS011;59019;47.638;18.966;2023-05-10T14:45:10;3.72;;;1.70;;
71253;SDS011;59019;47.638;18.966;2023-05-10T14:47:36;3.53;;;1.50;;
71253;SDS011;59019;47.638;18.966;2023-05-10T14:50:01;3.90;;;1.30;;
71253;SDS011;59019;47.638;18.966;2023-05-10T14:52:27;4.03;;;1.83;;
71253;SDS011;59019;47.638;18.966;2023-05-10T14:54:52;4.75;;;1.48;;
71253;SDS011;59019;47.638;18.966;2023-05-10T14:57:18;3.42;;;1.40;;
71253;SDS011;59019;47.638;18.966;2023-05-10T14:59:44;3.10;;;1.40;;
71253;SDS011;59019;47.638;18.966;2023-05-10T15:02:09;3.43;;;1.43;;
71253;SDS011;59019;47.638;18.966;2023-05-10T15:04:35;3.53;;;1.40;;
71253;SDS011;59019;47.638;18.966;2023-05-10T15:07:01;4.47;;;1.60;;
71253;SDS011;59019;47.638;18.966;2023-05-10T15:09:26;3.33;;;1.50;;